Time;durP1;ratioP1;P1;durP2;ratioP2;P2;SDS_P1;SDS_P2;PMS_P1;PMS_P2;Temp;Humidity;BMP_temperature;BMP_pressure;BME280_temperature;BME280_humidity;BME280_pressure;Samples;Min_cycle;Max_cycle;Signal;HPM_P1;HPM_P2
2021/09/30 00:00:09;;;;;;;3.70;1.13;;;;;;;9.98;nan;101577.94;5051078;28;20044;-75
2021/09/30 00:02:35;;;;;;;3.15;1.40;;;;;;;9.91;nan;101580.22;5069747;28;20120;-75
2021/09/30 00:05:01;;;;;;;2.88;1.13;;;;;;;9.84;nan;101586.13;5051269;28;20040;-75
2021/09/30 00:07:26;;;;;;;2.90;1.30;;;;;;;9.85;nan;101578.09;5069512;28;20086;-75
2021/09/30 00:09:52;;;;;;;3.10;1.20;;;;;;;9.81;nan;101581.09;5069005;28;20028;-75
2021/09/30 00:12:25;;;;;;;3.10;1.20;;;;;;;9.77;nan;101586.63;5070321;28;20036;-75
2021/09/30 00:14:57;;;;;;;4.85;1.58;;;;;;;9.76;nan;101581.44;5074569;28;20042;-75
2021/09/30 00:33:36;;;;;;;3.35;1.48;;;;;;;9.58;nan;101581.06;5070612;28;20082;-75
2021/09/30 00:51:41;;;;;;;3.47;1.30;;;;;;;9.33;nan;101590.06;5069233;28;20036;-75
2021/09/30 01:32:47;;;;;;;2.92;1.20;;;;;;;9.07;nan;101629.00;5067124;28;20044;-75
2021/09/30 01:52:02;;;;;;;4.63;2.00;;;;;;;9.05;nan;101631.72;5073979;28;20047;-75
2021/09/30 02:29:38;;;;;;;4.82;2.28;;;;;;;8.95;nan;101658.94;5071513;28;20078;-75
2021/09/30 02:39:00;;;;;;;3.70;1.70;;;;;;;8.87;nan;101656.84;5071547;28;20078;-75
2021/09/30 03:00:07;;;;;;;4.10;2.00;;;;;;;8.72;nan;101656.16;5070689;28;20534;-75
2021/09/30 03:02:36;;;;;;;5.20;1.95;;;;;;;8.75;nan;101665.63;5071780;28;20094;-75
2021/09/30 03:05:02;;;;;;;6.88;1.77;;;;;;;8.77;nan;101671.66;5063120;28;20024;-75
2021/09/30 03:07:28;;;;;;;5.32;1.85;;;;;;;8.72;nan;101671.97;5071355;28;20229;-75
2021/09/30 03:09:55;;;;;;;3.70;2.20;;;;;;;8.70;nan;101664.22;5053667;28;20078;-74
2021/09/30 03:12:27;;;;;;;3.88;1.95;;;;;;;8.73;nan;101665.78;5070240;28;20139;-74
2021/09/30 03:15:05;;;;;;;5.68;2.03;;;;;;;8.69;nan;101670.41;5053222;28;20028;-74
2021/09/30 03:17:43;;;;;;;6.72;2.50;;;;;;;8.71;nan;101675.59;5070826;28;20039;-74
2021/09/30 03:23:04;;;;;;;4.20;2.08;;;;;;;8.60;nan;101664.97;5070371;28;20055;-74
2021/09/30 03:25:31;;;;;;;4.78;2.47;;;;;;;8.65;nan;101674.25;5070590;28;20585;-74
2021/09/30 03:27:57;;;;;;;3.42;2.08;;;;;;;8.59;nan;101672.03;5070734;28;20040;-75
2021/09/30 03:30:26;;;;;;;3.70;2.20;;;;;;;8.65;nan;101684.78;5052729;28;20037;-73
2021/09/30 03:32:52;;;;;;;4.40;1.92;;;;;;;8.63;nan;101681.44;5070521;28;20042;-74
2021/09/30 03:35:18;;;;;;;4.53;2.20;;;;;;;8.66;nan;101681.19;5076130;28;20532;-74
2021/09/30 03:37:44;;;;;;;4.20;2.00;;;;;;;8.62;nan;101689.44;5071884;28;20044;-74
2021/09/30 03:40:09;;;;;;;4.82;2.42;;;;;;;8.64;nan;101684.91;5070768;28;20041;-74
2021/09/30 03:42:34;;;;;;;6.15;2.20;;;;;;;8.56;nan;101688.09;5070740;28;20044;-74
2021/09/30 03:45:00;;;;;;;5.53;2.30;;;;;;;8.55;nan;101689.03;5070768;28;20070;-74
2021/09/30 03:47:25;;;;;;;4.85;2.13;;;;;;;8.49;nan;101697.38;5070287;28;20616;-73
2021/09/30 03:49:52;;;;;;;5.47;2.30;;;;;;;8.53;nan;101693.56;5068615;28;20036;-74
2021/09/30 04:00:05;;;;;;;7.05;2.30;;;;;;;8.40;nan;101705.94;5067811;28;20297;-74
2021/09/30 04:02:31;;;;;;;4.68;2.15;;;;;;;8.39;nan;101696.31;5069667;28;20043;-74
2021/09/30 04:04:57;;;;;;;4.03;2.35;;;;;;;8.39;nan;101699.81;5070218;28;20024;-74
2021/09/30 04:07:22;;;;;;;5.93;2.08;;;;;;;8.36;nan;101707.06;5067033;28;20393;-74
2021/09/30 04:09:48;;;;;;;5.30;2.25;;;;;;;8.38;nan;101703.38;5069516;28;20033;-74
2021/09/30 04:12:13;;;;;;;5.47;2.28;;;;;;;8.41;nan;101700.53;5068935;28;20036;-73
2021/09/30 04:14:40;;;;;;;3.55;2.00;;;;;;;8.39;nan;101709.47;5070289;28;20055;-74
2021/09/30 04:17:06;;;;;;;4.28;2.42;;;;;;;8.39;nan;101697.16;5055985;28;20046;-74
2021/09/30 04:19:32;;;;;;;6.53;2.03;;;;;;;8.43;nan;101706.56;5067886;28;20032;-74
2021/09/30 04:21:58;;;;;;;4.30;2.28;;;;;;;8.40;nan;101700.69;5069890;28;20294;-74
2021/09/30 04:24:24;;;;;;;4.80;2.40;;;;;;;8.29;nan;101693.47;5051236;28;20291;-74
2021/09/30 04:26:51;;;;;;;5.93;2.50;;;;;;;8.29;nan;101698.75;5069034;28;20025;-74
2021/09/30 04:29:17;;;;;;;5.50;2.58;;;;;;;8.26;nan;101699.81;5069057;28;20048;-74
2021/09/30 04:31:43;;;;;;;3.25;1.90;;;;;;;8.25;nan;101692.03;5050770;28;20033;-74
2021/09/30 04:34:08;;;;;;;6.97;2.25;;;;;;;8.22;nan;101693.09;5051546;28;20029;-73
2021/09/30 04:36:34;;;;;;;7.28;2.38;;;;;;;8.19;nan;101698.56;5069551;28;20041;-73
2021/09/30 04:39:00;;;;;;;4.70;2.30;;;;;;;8.19;nan;101711.72;5069232;28;20436;-74
2021/09/30 04:41:25;;;;;;;3.42;2.20;;;;;;;8.13;nan;101709.53;5068742;28;20028;-74
2021/09/30 04:43:51;;;;;;;5.75;2.13;;;;;;;8.13;nan;101709.53;5068792;28;20404;-74
2021/09/30 04:46:20;;;;;;;4.75;2.13;;;;;;;8.17;nan;101707.53;5077798;28;20048;-73
2021/09/30 04:48:45;;;;;;;3.30;2.20;;;;;;;8.14;nan;101713.84;5069319;28;20409;-73
2021/09/30 04:51:11;;;;;;;6.00;2.47;;;;;;;8.05;nan;101719.75;5074389;28;20039;-74
2021/09/30 04:53:37;;;;;;;4.75;2.03;;;;;;;8.08;nan;101723.03;5050911;28;20048;-74
2021/09/30 04:56:03;;;;;;;4.60;2.20;;;;;;;8.04;nan;101731.25;5051910;28;20032;-74
2021/09/30 04:58:28;;;;;;;5.45;2.05;;;;;;;8.02;nan;101733.16;5055895;28;20054;-74
2021/09/30 05:00:54;;;;;;;3.33;1.75;;;;;;;8.01;nan;101739.38;5050570;28;20033;-74
2021/09/30 05:03:20;;;;;;;5.00;1.90;;;;;;;8.00;nan;101729.75;5068951;28;20086;-73
2021/09/30 05:05:45;;;;;;;5.00;2.35;;;;;;;7.95;nan;101737.16;5068608;28;20124;-74
2021/09/30 05:08:10;;;;;;;4.18;2.05;;;;;;;7.91;nan;101736.50;5068393;28;20040;-73
2021/09/30 05:10:37;;;;;;;4.15;1.83;;;;;;;7.88;nan;101737.56;5051206;28;20039;-74
2021/09/30 05:13:15;;;;;;;4.57;2.13;;;;;;;7.90;nan;101734.00;5043174;28;20040;-74
2021/09/30 05:15:41;;;;;;;3.65;2.08;;;;;;;7.90;nan;101736.63;5068694;28;20098;-73
2021/09/30 05:18:06;;;;;;;6.65;2.40;;;;;;;7.91;nan;101740.94;5050487;28;20037;-73
2021/09/30 05:20:32;;;;;;;6.00;2.30;;;;;;;7.88;nan;101737.56;5050907;28;20443;-73
2021/09/30 05:22:58;;;;;;;3.65;2.20;;;;;;;7.83;nan;101744.94;5068334;28;20029;-73
2021/09/30 05:25:25;;;;;;;5.60;2.20;;;;;;;7.85;nan;101745.66;5051170;28;20565;-74
2021/09/30 05:27:52;;;;;;;6.25;2.47;;;;;;;7.81;nan;101752.09;5050660;28;20053;-74
2021/09/30 05:30:21;;;;;;;5.15;2.50;;;;;;;7.79;nan;101748.69;5068873;28;20037;-74
2021/09/30 05:32:47;;;;;;;5.20;2.38;;;;;;;7.82;nan;101752.94;5068932;28;20041;-73
2021/09/30 05:35:13;;;;;;;5.05;2.28;;;;;;;7.85;nan;101752.72;5068561;28;20079;-73
2021/09/30 05:37:38;;;;;;;4.13;2.20;;;;;;;7.80;nan;101753.03;5068524;28;20048;-74
2021/09/30 05:40:04;;;;;;;4.88;2.53;;;;;;;7.87;nan;101750.84;5072056;28;20067;-73
2021/09/30 05:42:30;;;;;;;5.70;2.22;;;;;;;7.86;nan;101763.19;5072973;28;20045;-73
2021/09/30 05:44:58;;;;;;;4.75;2.17;;;;;;;7.82;nan;101766.13;5068579;28;20044;-74
2021/09/30 05:47:23;;;;;;;7.07;2.92;;;;;;;7.84;nan;101765.06;5065195;28;20025;-74
2021/09/30 05:49:49;;;;;;;7.30;2.58;;;;;;;7.88;nan;101766.53;5070286;28;20059;-74
2021/09/30 05:52:14;;;;;;;5.40;2.65;;;;;;;7.93;nan;101763.56;5051969;28;20401;-73
2021/09/30 05:54:40;;;;;;;3.85;2.20;;;;;;;8.02;nan;101762.13;5054334;28;20047;-74
2021/09/30 05:57:05;;;;;;;5.40;2.58;;;;;;;8.08;nan;101767.81;5050640;28;20074;-74
2021/09/30 05:59:31;;;;;;;4.40;2.20;;;;;;;8.11;nan;101766.75;5069174;28;20024;-74
2021/09/30 06:12:32;;;;;;;5.45;2.40;;;;;;;8.43;nan;101761.06;5067333;28;20036;-74
2021/09/30 06:14:58;;;;;;;3.28;2.00;;;;;;;8.62;nan;101769.38;5071285;28;20037;-74
2021/09/30 06:17:24;;;;;;;2.95;1.80;;;;;;;8.86;nan;101772.03;5068492;28;20064;-74
2021/09/30 06:19:49;;;;;;;3.22;2.00;;;;;;;9.43;nan;101759.16;5050255;28;20469;-74
2021/09/30 06:22:15;;;;;;;3.03;1.73;;;;;;;9.98;nan;101770.84;5049885;28;20124;-74
2021/09/30 06:24:40;;;;;;;4.93;1.73;;;;;;;10.37;nan;101766.97;5068248;28;20029;-74
2021/09/30 06:27:06;;;;;;;4.30;1.90;;;;;;;10.26;nan;101764.28;5075494;28;20041;-74
2021/09/30 06:29:31;;;;;;;4.32;1.60;;;;;;;10.20;nan;101770.88;5069406;28;20378;-74
2021/09/30 06:31:57;;;;;;;2.22;1.30;;;;;;;10.04;nan;101765.09;5052218;28;20135;-74
2021/09/30 06:34:23;;;;;;;5.05;1.60;;;;;;;9.86;nan;101767.34;5053831;28;20091;-74
2021/09/30 06:36:50;;;;;;;6.05;1.48;;;;;;;9.59;nan;101766.78;5055395;28;20056;-74
2021/09/30 06:39:15;;;;;;;4.57;1.70;;;;;;;9.46;nan;101774.75;5073176;28;20037;-74
2021/09/30 06:41:41;;;;;;;3.25;1.50;;;;;;;9.38;nan;101772.69;5072297;28;20040;-74
2021/09/30 06:44:06;;;;;;;5.45;2.20;;;;;;;9.42;nan;101771.53;5071068;28;20082;-74
2021/09/30 06:46:31;;;;;;;4.32;1.92;;;;;;;9.25;nan;101774.56;5071559;28;20040;-74
2021/09/30 06:48:56;;;;;;;4.82;2.08;;;;;;;9.27;nan;101777.91;5071516;28;20493;-74
2021/09/30 06:51:22;;;;;;;4.40;2.10;;;;;;;9.34;nan;101779.16;5071927;28;20279;-74
2021/09/30 06:53:47;;;;;;;4.53;1.88;;;;;;;9.45;nan;101781.84;5071440;28;20037;-74
2021/09/30 06:56:16;;;;;;;3.30;1.83;;;;;;;10.09;nan;101789.38;5053541;28;20195;-74
2021/09/30 06:58:44;;;;;;;4.35;1.80;;;;;;;10.33;nan;101793.75;5073757;28;20035;-74
2021/09/30 07:01:10;;;;;;;4.63;1.95;;;;;;;10.59;nan;101797.00;5073204;28;20032;-74
2021/09/30 07:03:36;;;;;;;3.75;1.60;;;;;;;10.47;nan;101804.09;5072532;28;20036;-74
2021/09/30 07:06:02;;;;;;;6.15;1.92;;;;;;;10.38;nan;101803.00;5072731;28;20068;-74
2021/09/30 07:08:28;;;;;;;4.32;1.70;;;;;;;10.30;nan;101805.41;5059659;28;20174;-74
2021/09/30 07:10:53;;;;;;;4.50;1.90;;;;;;;10.37;nan;101805.78;5078588;28;20111;-74
2021/09/30 07:13:19;;;;;;;5.63;2.20;;;;;;;10.40;nan;101802.91;5071476;28;20120;-74
2021/09/30 07:15:44;;;;;;;4.82;2.00;;;;;;;10.35;nan;101815.63;5069822;28;20037;-74
2021/09/30 07:18:18;;;;;;;4.93;2.30;;;;;;;10.32;nan;101813.22;5071125;28;20408;-74
2021/09/30 07:20:44;;;;;;;6.05;2.08;;;;;;;10.38;nan;101807.47;5053324;28;20459;-74
2021/09/30 07:23:09;;;;;;;5.47;1.90;;;;;;;10.37;nan;101805.78;5071316;28;20036;-74
2021/09/30 07:25:35;;;;;;;5.15;1.75;;;;;;;10.41;nan;101813.34;5068682;28;20040;-74
2021/09/30 07:28:00;;;;;;;3.92;2.00;;;;;;;10.43;nan;101815.88;5062816;28;20036;-74
2021/09/30 07:30:26;;;;;;;4.50;2.05;;;;;;;10.61;nan;101809.16;5053057;28;20533;-74
2021/09/30 07:32:51;;;;;;;4.72;2.05;;;;;;;10.67;nan;101809.63;5072134;28;20365;-74
2021/09/30 07:35:17;;;;;;;6.50;2.15;;;;;;;10.69;nan;101819.13;5053088;28;20418;-75
2021/09/30 07:37:42;;;;;;;6.22;2.38;;;;;;;10.82;nan;101811.91;5055884;28;20058;-74
2021/09/30 07:40:08;;;;;;;8.60;2.20;;;;;;;10.96;nan;101804.66;5071151;28;20043;-74
2021/09/30 07:42:33;;;;;;;5.22;1.80;;;;;;;11.18;nan;101801.97;5052385;28;20032;-74
2021/09/30 07:44:59;;;;;;;4.40;1.52;;;;;;;11.42;nan;101801.78;5070779;28;20089;-74
2021/09/30 07:47:25;;;;;;;4.00;2.08;;;;;;;11.81;nan;101807.38;5073999;28;20071;-74
2021/09/30 07:49:50;;;;;;;5.13;1.95;;;;;;;12.01;nan;101816.38;5071746;28;20036;-74
2021/09/30 07:52:16;;;;;;;3.42;1.70;;;;;;;12.40;nan;101819.25;5069773;28;20047;-74
2021/09/30 07:54:41;;;;;;;3.90;1.65;;;;;;;13.18;nan;101806.22;5070105;28;20056;-74
2021/09/30 07:57:07;;;;;;;4.78;1.80;;;;;;;13.59;nan;101814.97;5070050;28;20325;-74
2021/09/30 07:59:32;;;;;;;6.22;1.70;;;;;;;14.08;nan;101813.06;5050402;28;20126;-74
2021/09/30 08:01:58;;;;;;;6.45;1.75;;;;;;;13.79;nan;101811.28;5042900;28;20044;-74
2021/09/30 08:04:23;;;;;;;3.00;1.52;;;;;;;13.90;nan;101814.81;5041125;28;20120;-74
2021/09/30 08:06:48;;;;;;;3.83;1.52;;;;;;;14.43;nan;101819.56;5063444;28;20659;-74
2021/09/30 08:09:14;;;;;;;3.63;1.60;;;;;;;15.19;nan;101811.38;5061013;28;20794;-74
2021/09/30 08:11:39;;;;;;;3.88;1.27;;;;;;;15.06;nan;101819.75;5070858;28;20500;-74
2021/09/30 08:14:04;;;;;;;4.03;1.40;;;;;;;15.49;nan;101812.00;5072276;28;20059;-75
2021/09/30 08:16:30;;;;;;;5.07;1.60;;;;;;;15.85;nan;101812.00;5075685;28;20279;-75
2021/09/30 08:18:56;;;;;;;5.18;1.40;;;;;;;16.73;nan;101811.84;5072158;28;20444;-74
2021/09/30 08:21:22;;;;;;;2.80;1.20;;;;;;;17.20;nan;101817.53;5071801;28;20037;-75
2021/09/30 08:23:48;;;;;;;2.63;1.30;;;;;;;18.13;nan;101812.91;5070515;28;20036;-75
2021/09/30 08:26:18;;;;;;;4.25;1.15;;;;;;;18.37;nan;101807.50;5069687;28;20089;-75
2021/09/30 08:28:47;;;;;;;4.45;1.40;;;;;;;18.38;nan;101811.03;5071247;28;20032;-75
2021/09/30 08:31:13;;;;;;;4.15;1.38;;;;;;;18.17;nan;101814.25;5066809;28;20040;-75
2021/09/30 08:33:42;;;;;;;4.82;1.55;;;;;;;18.24;nan;101802.69;5068136;28;20040;-75
2021/09/30 08:36:12;;;;;;;3.78;1.20;;;;;;;18.32;nan;101812.53;5067035;28;20037;-75
2021/09/30 08:38:38;;;;;;;2.63;0.95;;;;;;;18.71;nan;101806.41;5070141;28;20096;-74
2021/09/30 08:41:04;;;;;;;3.47;1.25;;;;;;;18.68;nan;101806.72;5046742;28;20055;-75
2021/09/30 08:43:29;;;;;;;4.30;1.20;;;;;;;19.78;nan;101808.44;5068033;28;20028;-75
2021/09/30 08:45:54;;;;;;;5.13;1.48;;;;;;;19.62;nan;101814.75;5068794;28;20033;-74
2021/09/30 08:48:22;;;;;;;2.78;1.10;;;;;;;19.18;nan;101810.03;5068987;28;20075;-73
2021/09/30 08:50:48;;;;;;;3.33;1.20;;;;;;;18.53;nan;101809.31;5068408;28;20029;-75
2021/09/30 08:53:13;;;;;;;4.32;1.10;;;;;;;18.60;nan;101804.91;5066159;28;20444;-75
2021/09/30 08:55:40;;;;;;;6.45;1.42;;;;;;;18.51;nan;101810.47;5059402;28;20116;-75
2021/09/30 08:58:07;;;;;;;3.78;1.00;;;;;;;18.78;nan;101802.03;5068214;28;20029;-76
2021/09/30 09:00:35;;;;;;;3.38;1.20;;;;;;;18.41;nan;101800.81;5067890;28;20112;-73
2021/09/30 09:03:00;;;;;;;4.13;1.10;;;;;;;18.88;nan;101801.81;5068585;28;20043;-75
2021/09/30 09:05:26;;;;;;;3.55;1.10;;;;;;;18.38;nan;101800.31;5050753;28;20119;-75
2021/09/30 09:08:01;;;;;;;5.45;1.60;;;;;;;18.91;nan;101795.28;5068409;28;20147;-76
2021/09/30 09:10:29;;;;;;;3.85;1.20;;;;;;;19.66;nan;101799.94;5072186;28;20078;-75
2021/09/30 09:13:05;;;;;;;5.30;1.20;;;;;;;19.93;nan;101793.22;5068984;28;20404;-74
2021/09/30 09:15:40;;;;;;;2.78;1.00;;;;;;;20.22;nan;101797.78;5073843;28;20120;-75
2021/09/30 09:18:25;;;;;;;3.10;1.25;;;;;;;20.41;nan;101798.25;5068349;28;20039;-75
2021/09/30 09:21:04;;;;;;;3.10;1.17;;;;;;;20.26;nan;101795.53;5050572;28;20121;-75
2021/09/30 09:23:39;;;;;;;3.83;1.30;;;;;;;20.13;nan;101791.66;5057350;28;20085;-75
2021/09/30 09:26:15;;;;;;;3.22;1.15;;;;;;;19.70;nan;101787.88;5060946;28;20329;-76
2021/09/30 09:29:01;;;;;;;2.92;0.93;;;;;;;18.46;nan;101776.19;5066597;28;20048;-73
2021/09/30 09:31:44;;;;;;;3.47;1.10;;;;;;;19.24;nan;101787.88;5065781;28;20086;-74
2021/09/30 09:34:28;;;;;;;3.00;1.10;;;;;;;19.32;nan;101779.75;5070149;28;20032;-75
2021/09/30 09:37:13;;;;;;;5.40;1.02;;;;;;;19.12;nan;101779.41;5068417;28;20032;-75
2021/09/30 09:39:39;;;;;;;3.47;1.20;;;;;;;18.96;nan;101782.19;5068712;28;20039;-75
2021/09/30 09:42:14;;;;;;;6.55;1.83;;;;;;;18.45;nan;101780.72;5067793;28;20044;-77
2021/09/30 09:44:56;;;;;;;3.45;1.30;;;;;;;17.98;nan;101776.13;5065186;28;20062;-75
2021/09/30 09:47:26;;;;;;;4.03;1.17;;;;;;;17.53;nan;101768.63;5051025;28;20048;-75
2021/09/30 09:50:27;;;;;;;7.20;1.33;;;;;;;17.21;nan;101778.31;5067893;28;20544;-75
2021/09/30 09:52:59;;;;;;;1.65;0.90;;;;;;;17.04;nan;101774.75;5005431;28;20041;-75
2021/09/30 09:55:33;;;;;;;3.47;1.20;;;;;;;17.29;nan;101772.13;5052821;28;20174;-75
2021/09/30 09:58:10;;;;;;;4.55;1.20;;;;;;;17.27;nan;101774.13;5067888;28;20033;-75
2021/09/30 10:00:59;;;;;;;2.80;1.20;;;;;;;17.25;nan;101771.59;5065227;28;20170;-75
2021/09/30 10:03:30;;;;;;;4.80;1.10;;;;;;;16.92;nan;101773.38;5050704;28;20032;-75
2021/09/30 10:06:00;;;;;;;2.78;1.00;;;;;;;16.64;nan;101770.09;5068017;28;20041;-75
2021/09/30 10:08:26;;;;;;;5.00;1.25;;;;;;;16.98;nan;101765.56;5053584;28;20037;-75
2021/09/30 10:10:53;;;;;;;3.22;1.13;;;;;;;16.81;nan;101758.50;5065791;28;20041;-75
2021/09/30 10:13:20;;;;;;;3.63;1.00;;;;;;;16.07;nan;101760.81;5071757;28;20040;-75
2021/09/30 10:15:46;;;;;;;4.07;1.45;;;;;;;15.84;nan;101759.66;5055589;28;20040;-75
2021/09/30 10:18:12;;;;;;;5.35;1.23;;;;;;;15.57;nan;101753.44;5071482;28;20038;-75
2021/09/30 10:20:39;;;;;;;6.72;1.30;;;;;;;16.05;nan;101751.28;5053968;28;20123;-75
2021/09/30 10:23:07;;;;;;;5.88;1.10;;;;;;;16.30;nan;101752.25;5072051;28;20029;-75
2021/09/30 10:25:35;;;;;;;3.97;1.00;;;;;;;16.51;nan;101754.50;5071051;28;20132;-75
2021/09/30 10:28:03;;;;;;;2.60;1.13;;;;;;;16.33;nan;101744.75;5053183;28;20037;-75
2021/09/30 10:30:40;;;;;;;3.95;0.90;;;;;;;16.18;nan;101751.69;5071254;28;20048;-75
2021/09/30 10:33:11;;;;;;;5.55;1.40;;;;;;;15.90;nan;101751.03;5076270;28;20032;-75
2021/09/30 10:35:39;;;;;;;5.35;1.38;;;;;;;15.92;nan;101749.88;5085560;28;20058;-75
2021/09/30 10:38:28;;;;;;;3.72;1.40;;;;;;;16.10;nan;101757.81;5071543;28;20028;-75
2021/09/30 10:41:12;;;;;;;4.47;1.15;;;;;;;16.31;nan;101745.94;5071659;28;20032;-75
2021/09/30 10:43:41;;;;;;;5.22;1.10;;;;;;;16.47;nan;101743.34;5071191;28;20048;-75
2021/09/30 10:46:30;;;;;;;4.28;1.23;;;;;;;16.60;nan;101740.19;5070563;28;20525;-75
2021/09/30 10:48:56;;;;;;;4.15;0.93;;;;;;;16.49;nan;101735.16;5082088;28;20043;-75
2021/09/30 10:51:22;;;;;;;2.70;0.80;;;;;;;16.30;nan;101730.88;5060660;28;20036;-75
2021/09/30 10:53:47;;;;;;;4.47;0.90;;;;;;;16.28;nan;101735.53;5061113;28;20040;-75
2021/09/30 10:56:33;;;;;;;3.17;1.03;;;;;;;16.47;nan;101740.66;5070144;28;20043;-75
2021/09/30 10:58:59;;;;;;;2.20;0.70;;;;;;;16.29;nan;101727.38;5051348;28;20727;-75
2021/09/30 11:01:25;;;;;;;2.42;0.80;;;;;;;16.07;nan;101735.97;5064837;28;20040;-75
2021/09/30 11:04:02;;;;;;;4.90;1.33;;;;;;;15.91;nan;101734.03;5071456;28;20405;-75
2021/09/30 11:06:28;;;;;;;4.40;0.88;;;;;;;15.81;nan;101728.78;5070776;28;20044;-75
2021/09/30 11:09:15;;;;;;;3.65;1.25;;;;;;;15.95;nan;101734.56;5071367;28;20040;-75
2021/09/30 11:11:49;;;;;;;3.58;1.30;;;;;;;16.03;nan;101727.41;5053524;28;20048;-74
2021/09/30 11:14:16;;;;;;;5.38;1.20;;;;;;;16.28;nan;101728.41;5071040;28;20071;-75
2021/09/30 11:16:51;;;;;;;4.68;1.40;;;;;;;16.07;nan;101725.28;5071106;28;20028;-75
2021/09/30 11:19:29;;;;;;;3.42;0.90;;;;;;;16.13;nan;101717.47;5070742;28;20083;-75
2021/09/30 11:21:56;;;;;;;2.85;0.80;;;;;;;16.12;nan;101721.13;5071562;28;20350;-74
2021/09/30 11:24:25;;;;;;;10.98;5.93;;;;;;;16.03;nan;101721.25;5053506;28;20101;-75
2021/09/30 11:26:53;;;;;;;4.50;1.75;;;;;;;16.12;nan;101717.66;5072025;28;20056;-75
2021/09/30 11:29:22;;;;;;;3.60;1.52;;;;;;;16.15;nan;101701.31;5053444;28;20040;-75
2021/09/30 11:31:53;;;;;;;2.20;0.80;;;;;;;16.25;nan;101710.00;5053699;28;20040;-75
2021/09/30 11:34:21;;;;;;;2.63;0.80;;;;;;;16.20;nan;101709.66;5073079;28;20036;-74
2021/09/30 11:36:46;;;;;;;2.90;0.77;;;;;;;16.20;nan;101704.31;5072800;28;20044;-74
2021/09/30 11:39:12;;;;;;;3.78;0.80;;;;;;;16.18;nan;101703.63;5072753;28;20032;-74
2021/09/30 11:41:40;;;;;;;2.95;0.80;;;;;;;16.07;nan;101707.44;5065497;28;20131;-75
2021/09/30 11:44:07;;;;;;;2.83;0.90;;;;;;;15.98;nan;101692.38;5063981;28;20032;-75
2021/09/30 11:46:38;;;;;;;6.15;3.17;;;;;;;15.85;nan;101692.81;5062728;28;20036;-74
2021/09/30 11:49:04;;;;;;;3.42;1.17;;;;;;;16.24;nan;101691.50;5063695;28;20032;-75
2021/09/30 11:51:38;;;;;;;3.38;0.85;;;;;;;16.32;nan;101688.88;5061199;28;20040;-75
2021/09/30 11:54:06;;;;;;;2.00;0.85;;;;;;;16.23;nan;101677.34;5062692;28;20029;-75
2021/09/30 11:56:41;;;;;;;2.92;0.70;;;;;;;16.38;nan;101682.06;5065689;28;20028;-75
2021/09/30 11:59:08;;;;;;;3.05;0.90;;;;;;;16.40;nan;101672.03;5062699;28;20036;-74
2021/09/30 12:01:37;;;;;;;2.40;0.77;;;;;;;16.21;nan;101671.31;5064972;28;20033;-74
2021/09/30 12:04:04;;;;;;;1.42;0.52;;;;;;;16.49;nan;101671.94;5064997;28;20347;-74
2021/09/30 12:06:45;;;;;;;3.33;0.70;;;;;;;16.41;nan;101655.88;5044848;28;20044;-75
2021/09/30 12:09:13;;;;;;;2.78;0.70;;;;;;;16.60;nan;101652.06;5050635;28;20489;-74
2021/09/30 12:11:40;;;;;;;2.47;0.68;;;;;;;16.64;nan;101655.28;5064612;28;20043;-75
2021/09/30 12:14:08;;;;;;;1.85;0.68;;;;;;;16.49;nan;101650.56;5061249;28;20037;-74
2021/09/30 12:16:51;;;;;;;2.55;0.60;;;;;;;16.55;nan;101649.91;5067810;28;20115;-74
2021/09/30 12:19:33;;;;;;;1.30;0.68;;;;;;;16.60;nan;101637.91;5044009;28;20037;-75
2021/09/30 12:21:59;;;;;;;2.30;0.70;;;;;;;16.51;nan;101639.69;5044667;28;20044;-75
2021/09/30 12:24:27;;;;;;;4.82;0.70;;;;;;;16.60;nan;101641.41;5063655;28;20068;-75
2021/09/30 12:26:53;;;;;;;2.28;0.70;;;;;;;16.54;nan;101644.72;5062360;28;20039;-75
2021/09/30 12:29:19;;;;;;;1.30;0.50;;;;;;;16.33;nan;101643.34;5067370;28;20044;-74
2021/09/30 12:31:46;;;;;;;1.63;0.60;;;;;;;16.16;nan;101630.94;5046140;28;20243;-74
2021/09/30 12:34:22;;;;;;;5.32;0.80;;;;;;;16.01;nan;101637.88;5070119;28;20028;-75
2021/09/30 12:36:48;;;;;;;3.58;0.77;;;;;;;15.80;nan;101625.78;5051551;28;20040;-74
2021/09/30 12:39:13;;;;;;;2.05;0.70;;;;;;;15.76;nan;101627.09;5068782;28;20041;-74
2021/09/30 12:41:40;;;;;;;4.05;0.88;;;;;;;16.13;nan;101629.41;5069986;28;20037;-74
2021/09/30 12:44:11;;;;;;;3.03;0.93;;;;;;;16.42;nan;101617.50;5068468;28;20529;-75
2021/09/30 12:46:44;;;;;;;2.47;0.82;;;;;;;16.70;nan;101615.34;5069960;28;20098;-75
2021/09/30 12:49:09;;;;;;;2.60;0.70;;;;;;;16.89;nan;101619.59;5074674;28;20059;-75
2021/09/30 12:51:34;;;;;;;2.90;0.80;;;;;;;17.01;nan;101613.91;5069383;28;20036;-75
2021/09/30 12:54:00;;;;;;;4.18;1.13;;;;;;;16.80;nan;101604.53;5069322;28;20043;-75
2021/09/30 12:56:31;;;;;;;3.38;1.00;;;;;;;16.88;nan;101609.91;5050624;28;20116;-75
2021/09/30 12:59:08;;;;;;;;;;;;;;;16.79;nan;101607.41;5070863;28;20032;-75
2021/09/30 13:01:35;;;;;;;3.25;0.90;;;;;;;16.76;nan;101612.03;5051938;28;20408;-75
2021/09/30 13:04:11;;;;;;;2.47;0.60;;;;;;;16.85;nan;101601.38;5069680;28;20041;-75
2021/09/30 13:06:41;;;;;;;2.65;0.60;;;;;;;16.83;nan;101598.91;5069088;28;20512;-75
2021/09/30 13:09:19;;;;;;;4.60;0.80;;;;;;;16.70;nan;101598.50;5070064;28;20041;-74
2021/09/30 13:11:50;;;;;;;3.47;0.82;;;;;;;16.43;nan;101602.31;5069620;28;20037;-74
2021/09/30 13:14:26;;;;;;;4.15;1.33;;;;;;;16.35;nan;101593.28;5069141;28;20138;-74
2021/09/30 13:17:12;;;;;;;3.10;0.70;;;;;;;16.22;nan;101589.41;5068330;28;20519;-74
2021/09/30 13:19:47;;;;;;;3.13;1.10;;;;;;;15.97;nan;101581.34;5051108;28;20040;-74
2021/09/30 13:22:27;;;;;;;8.82;5.43;;;;;;;15.95;nan;101586.00;5068870;28;20066;-74
2021/09/30 13:24:54;;;;;;;2.58;1.10;;;;;;;15.92;nan;101581.81;5069003;28;20116;-74
2021/09/30 13:27:29;;;;;;;2.17;0.70;;;;;;;15.98;nan;101580.34;5069737;28;20512;-75
2021/09/30 13:29:56;;;;;;;2.13;0.80;;;;;;;16.02;nan;101572.88;5069738;28;20120;-74
2021/09/30 13:32:25;;;;;;;3.72;1.00;;;;;;;16.18;nan;101564.03;5068366;28;20117;-74
2021/09/30 13:34:52;;;;;;;2.97;1.00;;;;;;;16.43;nan;101562.28;5051413;28;20405;-74
2021/09/30 13:37:17;;;;;;;2.35;0.93;;;;;;;16.58;nan;101560.59;5051428;28;20405;-74
2021/09/30 13:39:43;;;;;;;2.90;0.80;;;;;;;16.55;nan;101558.28;5068482;28;20032;-75
2021/09/30 13:42:09;;;;;;;2.88;0.80;;;;;;;16.38;nan;101554.75;5076755;28;20036;-75
2021/09/30 13:44:35;;;;;;;2.28;0.82;;;;;;;16.38;nan;101552.09;5073355;28;20063;-74
2021/09/30 13:47:00;;;;;;;2.17;0.63;;;;;;;16.35;nan;101545.25;5072930;28;20056;-75
2021/09/30 13:49:25;;;;;;;3.72;0.82;;;;;;;16.50;nan;101547.28;5062140;28;20137;-74
2021/09/30 13:51:51;;;;;;;4.93;0.80;;;;;;;16.39;nan;101552.91;5073868;28;20502;-74
2021/09/30 13:54:16;;;;;;;2.45;0.70;;;;;;;16.41;nan;101542.91;5072567;28;20033;-74
2021/09/30 13:56:41;;;;;;;2.70;0.65;;;;;;;16.30;nan;101547.59;5073087;28;20520;-74
2021/09/30 13:59:07;;;;;;;3.03;0.77;;;;;;;16.27;nan;101545.22;5056245;28;20505;-74
2021/09/30 14:01:33;;;;;;;1.90;0.60;;;;;;;16.22;nan;101539.53;5055498;28;20244;-75
2021/09/30 14:03:58;;;;;;;2.05;0.70;;;;;;;16.15;nan;101538.53;5072778;28;20044;-74
2021/09/30 14:06:24;;;;;;;1.67;0.68;;;;;;;16.17;nan;101525.84;5072090;28;20413;-75
2021/09/30 14:08:52;;;;;;;2.53;0.70;;;;;;;16.08;nan;101524.16;5054444;28;20536;-75
2021/09/30 14:11:20;;;;;;;2.67;0.90;;;;;;;16.09;nan;101523.19;5072413;28;20037;-76
2021/09/30 14:13:46;;;;;;;2.72;0.70;;;;;;;16.21;nan;101527.22;5072782;28;20556;-75
2021/09/30 14:16:12;;;;;;;3.65;0.70;;;;;;;16.28;nan;101519.34;5072916;28;20059;-75
2021/09/30 14:18:38;;;;;;;3.75;0.90;;;;;;;16.33;nan;101515.22;5072657;28;20037;-76
2021/09/30 14:21:03;;;;;;;2.80;0.60;;;;;;;16.24;nan;101502.84;5074329;28;20032;-75
2021/09/30 14:23:29;;;;;;;1.27;0.50;;;;;;;16.30;nan;101504.88;5055172;28;20117;-75
2021/09/30 14:25:55;;;;;;;4.10;0.80;;;;;;;16.42;nan;101507.19;5072541;28;20060;-75
2021/09/30 14:28:21;;;;;;;4.93;0.90;;;;;;;16.43;nan;101503.53;5074292;28;20393;-75
2021/09/30 14:30:47;;;;;;;1.65;0.60;;;;;;;16.34;nan;101500.84;5055946;28;20037;-76
2021/09/30 14:33:12;;;;;;;2.00;0.70;;;;;;;16.50;nan;101507.22;5051199;28;20033;-76
2021/09/30 14:35:37;;;;;;;1.60;0.80;;;;;;;16.53;nan;101493.53;5050910;28;20056;-75
2021/09/30 14:38:03;;;;;;;2.30;0.70;;;;;;;16.63;nan;101498.69;5063550;28;20682;-76